Airfield :







YOU CAN JOIN US ON...

 
LOGIN :

Register | Disclaimer

   EN    FR    IT 

 









Legend :    VFR   Marginal VFR   IFR   Intensive IFR   Very Intensive IFR
Visi :
Ceiling :
>= 8 km
>= 3000ft
5 to 8 km
1000 to 3000 ft
1500m to 5 km
500 to 1000 ft
800 to 1500m
200 to 500 ft
< 800m
< 200 ft
Symbols :   Thunderstorms  Fog  Heavy snow  Heavy precipitations  Wind > 20 kt






- Airport Elevation : 38 ft
- IATA code : YMH


CYMH - Mary's Harbour

CURRENT METAR :
  • 150900Z AUTO VRB02KT 1/8SM FG VV003 11/11 A2982 RMK SLP099

EXPIRED METARs :
  • 150800Z AUTO 06003KT 1/2SM FG VV003 10/10 A2983 RMK SLP104
  • 150700Z AUTO 08003KT 020V100 1SM BR VV003 10/10 A2985 RMK SLP112
  • 150651Z AUTO 04003KT 1SM BR OVC003 10/10 A2986 RMK SLP113

TAF TAF CYMH
Valid from the 15 at 09:00 until the 15 at 21:00 UTC


150840Z 1509/1521 03005KT 1/2SM -DZ FG VV002
TEMPO 1509/1514 2SM BR OVC006
FM151400 34005KT 2SM -DZ BR OVC006
TEMPO 1514/1518 6SM BR OVC012
FM151800 35007KT P6SM OVC015
BECMG 1518/1520 OVC030 RMK FCST BASED ON AUTO OBS. NXT FCST BY 151400Z
CZQX FIR / North America



MET'MAP, your aeronautical weather chart ! - Copyright ORBIFLY December 2007 - Disclaimer

ORBIFLY MET'MAP TEAM :

Programming & Development : Alexandra Zaïnal
Original concept : Baudouin d'Aumeries
Technical & hardware support : Manuel Goepfert
Assistance : Marc-Olivier Méhu




SOURCES & CREDITS :

   NOAA